sensor_id;sensor_type;location;lat;lon;timestamp;P1;durP1;ratioP1;P2;durP2;ratioP2
3543;SDS011;1786;52.870;9.578;2023-11-21T00:02:26;24.00;;;7.60;;
3543;SDS011;1786;52.870;9.578;2023-11-21T00:04:53;14.43;;;6.40;;
3543;SDS011;1786;52.870;9.578;2023-11-21T00:07:20;19.07;;;7.37;;
3543;SDS011;1786;52.870;9.578;2023-11-21T00:09:48;19.37;;;7.27;;
3543;SDS011;1786;52.870;9.578;2023-11-21T00:12:15;14.53;;;7.27;;
3543;SDS011;1786;52.870;9.578;2023-11-21T00:14:42;21.23;;;7.97;;
3543;SDS011;1786;52.870;9.578;2023-11-21T00:17:09;14.20;;;7.40;;
3543;SDS011;1786;52.870;9.578;2023-11-21T00:19:36;17.47;;;8.00;;
3543;SDS011;1786;52.870;9.578;2023-11-21T00:22:03;11.80;;;6.97;;
3543;SDS011;1786;52.870;9.578;2023-11-21T00:24:30;20.70;;;6.70;;
3543;SDS011;1786;52.870;9.578;2023-11-21T00:26:58;17.17;;;6.90;;
3543;SDS011;1786;52.870;9.578;2023-11-21T00:29:25;18.43;;;8.10;;
3543;SDS011;1786;52.870;9.578;2023-11-21T00:31:52;13.93;;;7.50;;
3543;SDS011;1786;52.870;9.578;2023-11-21T00:34:19;17.90;;;7.80;;
3543;SDS011;1786;52.870;9.578;2023-11-21T00:36:47;9.90;;;6.33;;
3543;SDS011;1786;52.870;9.578;2023-11-21T00:39:13;17.77;;;8.30;;
3543;SDS011;1786;52.870;9.578;2023-11-21T00:41:40;10.73;;;6.77;;
3543;SDS011;1786;52.870;9.578;2023-11-21T00:44:08;14.47;;;7.53;;
3543;SDS011;1786;52.870;9.578;2023-11-21T00:46:35;25.13;;;8.97;;
3543;SDS011;1786;52.870;9.578;2023-11-21T00:49:02;16.00;;;8.20;;
3543;SDS011;1786;52.870;9.578;2023-11-21T00:51:30;14.30;;;7.20;;
3543;SDS011;1786;52.870;9.578;2023-11-21T00:53:58;15.70;;;8.17;;
3543;SDS011;1786;52.870;9.578;2023-11-21T00:56:25;14.47;;;7.73;;
3543;SDS011;1786;52.870;9.578;2023-11-21T00:58:52;23.13;;;8.20;;
3543;SDS011;1786;52.870;9.578;2023-11-21T01:01:20;15.90;;;8.00;;
3543;SDS011;1786;52.870;9.578;2023-11-21T01:03:50;14.13;;;7.47;;
3543;SDS011;1786;52.870;9.578;2023-11-21T01:06:18;10.73;;;7.07;;
3543;SDS011;1786;52.870;9.578;2023-11-21T01:08:47;12.83;;;7.93;;
3543;SDS011;1786;52.870;9.578;2023-11-21T01:11:14;12.40;;;7.70;;
3543;SDS011;1786;52.870;9.578;2023-11-21T01:13:42;12.20;;;7.10;;
3543;SDS011;1786;52.870;9.578;2023-11-21T01:16:09;11.60;;;8.07;;
3543;SDS011;1786;52.870;9.578;2023-11-21T01:18:36;12.13;;;7.43;;
3543;SDS011;1786;52.870;9.578;2023-11-21T01:21:03;14.83;;;7.53;;
3543;SDS011;1786;52.870;9.578;2023-11-21T01:23:30;11.27;;;7.20;;
3543;SDS011;1786;52.870;9.578;2023-11-21T01:25:57;15.53;;;7.70;;
3543;SDS011;1786;52.870;9.578;2023-11-21T01:28:24;13.70;;;7.50;;
3543;SDS011;1786;52.870;9.578;2023-11-21T01:30:51;12.43;;;6.87;;
3543;SDS011;1786;52.870;9.578;2023-11-21T01:33:18;12.90;;;8.00;;
3543;SDS011;1786;52.870;9.578;2023-11-21T01:35:45;15.10;;;7.47;;
3543;SDS011;1786;52.870;9.578;2023-11-21T01:38:13;13.50;;;7.50;;
3543;SDS011;1786;52.870;9.578;2023-11-21T01:40:40;13.97;;;8.80;;
3543;SDS011;1786;52.870;9.578;2023-11-21T01:43:07;13.30;;;7.90;;
3543;SDS011;1786;52.870;9.578;2023-11-21T01:45:35;14.00;;;7.90;;
3543;SDS011;1786;52.870;9.578;2023-11-21T01:48:02;12.37;;;8.50;;
3543;SDS011;1786;52.870;9.578;2023-11-21T01:50:30;13.30;;;7.83;;
3543;SDS011;1786;52.870;9.578;2023-11-21T01:52:57;11.20;;;7.60;;
3543;SDS011;1786;52.870;9.578;2023-11-21T01:55:24;15.13;;;7.37;;
3543;SDS011;1786;52.870;9.578;2023-11-21T01:57:58;15.20;;;8.40;;
3543;SDS011;1786;52.870;9.578;2023-11-21T02:00:24;11.00;;;7.10;;
3543;SDS011;1786;52.870;9.578;2023-11-21T02:02:56;12.63;;;6.83;;
3543;SDS011;1786;52.870;9.578;2023-11-21T02:05:23;11.57;;;7.80;;
3543;SDS011;1786;52.870;9.578;2023-11-21T02:07:50;12.50;;;7.60;;
3543;SDS011;1786;52.870;9.578;2023-11-21T02:10:18;11.83;;;7.37;;
3543;SDS011;1786;52.870;9.578;2023-11-21T02:12:50;15.77;;;6.60;;
3543;SDS011;1786;52.870;9.578;2023-11-21T02:15:17;13.50;;;6.43;;
3543;SDS011;1786;52.870;9.578;2023-11-21T02:17:48;11.60;;;7.30;;
3543;SDS011;1786;52.870;9.578;2023-11-21T02:20:19;10.37;;;7.47;;
3543;SDS011;1786;52.870;9.578;2023-11-21T02:22:55;10.67;;;7.33;;
3543;SDS011;1786;52.870;9.578;2023-11-21T02:25:28;18.50;;;6.53;;
3543;SDS011;1786;52.870;9.578;2023-11-21T02:27:57;16.77;;;7.30;;
3543;SDS011;1786;52.870;9.578;2023-11-21T02:30:24;14.83;;;7.80;;
3543;SDS011;1786;52.870;9.578;2023-11-21T02:32:52;14.87;;;6.93;;
3543;SDS011;1786;52.870;9.578;2023-11-21T02:35:24;12.30;;;7.07;;
3543;SDS011;1786;52.870;9.578;2023-11-21T02:37:55;10.80;;;7.00;;
3543;SDS011;1786;52.870;9.578;2023-11-21T02:40:23;10.53;;;7.40;;
3543;SDS011;1786;52.870;9.578;2023-11-21T02:42:51;11.70;;;8.10;;
3543;SDS011;1786;52.870;9.578;2023-11-21T02:45:19;12.63;;;7.27;;
3543;SDS011;1786;52.870;9.578;2023-11-21T02:47:49;9.50;;;7.83;;
3543;SDS011;1786;52.870;9.578;2023-11-21T02:50:16;14.40;;;8.00;;
3543;SDS011;1786;52.870;9.578;2023-11-21T02:52:47;10.77;;;7.00;;
3543;SDS011;1786;52.870;9.578;2023-11-21T02:55:13;10.27;;;6.80;;
3543;SDS011;1786;52.870;9.578;2023-11-21T02:57:40;12.50;;;8.00;;
3543;SDS011;1786;52.870;9.578;2023-11-21T03:00:07;10.00;;;8.60;;
3543;SDS011;1786;52.870;9.578;2023-11-21T03:02:36;14.90;;;8.10;;
3543;SDS011;1786;52.870;9.578;2023-11-21T03:05:07;13.67;;;8.43;;
3543;SDS011;1786;52.870;9.578;2023-11-21T03:07:39;13.70;;;8.40;;
3543;SDS011;1786;52.870;9.578;2023-11-21T03:10:07;10.70;;;8.67;;
3543;SDS011;1786;52.870;9.578;2023-11-21T03:12:38;11.60;;;9.13;;
3543;SDS011;1786;52.870;9.578;2023-11-21T03:15:06;12.90;;;8.20;;
3543;SDS011;1786;52.870;9.578;2023-11-21T03:17:35;17.57;;;9.57;;
3543;SDS011;1786;52.870;9.578;2023-11-21T03:20:04;14.47;;;8.73;;
3543;SDS011;1786;52.870;9.578;2023-11-21T03:22:32;12.53;;;8.93;;
3543;SDS011;1786;52.870;9.578;2023-11-21T03:24:59;12.80;;;8.80;;
3543;SDS011;1786;52.870;9.578;2023-11-21T03:27:26;10.40;;;8.30;;
3543;SDS011;1786;52.870;9.578;2023-11-21T03:29:53;13.70;;;8.30;;
3543;SDS011;1786;52.870;9.578;2023-11-21T03:32:21;11.50;;;8.70;;
3543;SDS011;1786;52.870;9.578;2023-11-21T03:34:55;12.93;;;9.67;;
3543;SDS011;1786;52.870;9.578;2023-11-21T03:37:25;14.37;;;9.70;;
3543;SDS011;1786;52.870;9.578;2023-11-21T03:39:54;6.60;;;5.63;;
3543;SDS011;1786;52.870;9.578;2023-11-21T03:42:23;4.73;;;3.60;;
3543;SDS011;1786;52.870;9.578;2023-11-21T03:44:50;3.30;;;3.10;;
3543;SDS011;1786;52.870;9.578;2023-11-21T03:47:17;2.60;;;2.40;;
3543;SDS011;1786;52.870;9.578;2023-11-21T03:49:46;2.23;;;2.13;;
3543;SDS011;1786;52.870;9.578;2023-11-21T03:52:15;1.80;;;1.70;;
3543;SDS011;1786;52.870;9.578;2023-11-21T03:54:43;1.30;;;1.30;;
3543;SDS011;1786;52.870;9.578;2023-11-21T03:57:10;0.80;;;0.80;;
3543;SDS011;1786;52.870;9.578;2023-11-21T03:59:40;1.00;;;1.00;;
3543;SDS011;1786;52.870;9.578;2023-11-21T04:02:08;1.90;;;1.03;;
3543;SDS011;1786;52.870;9.578;2023-11-21T04:04:35;0.93;;;0.93;;
3543;SDS011;1786;52.870;9.578;2023-11-21T04:07:03;1.23;;;1.23;;
3543;SDS011;1786;52.870;9.578;2023-11-21T04:09:30;0.90;;;0.90;;
3543;SDS011;1786;52.870;9.578;2023-11-21T04:11:57;1.83;;;0.90;;
3543;SDS011;1786;52.870;9.578;2023-11-21T04:14:24;2.10;;;0.90;;
3543;SDS011;1786;52.870;9.578;2023-11-21T04:16:51;2.03;;;1.53;;
3543;SDS011;1786;52.870;9.578;2023-11-21T04:19:18;1.37;;;1.37;;
3543;SDS011;1786;52.870;9.578;2023-11-21T04:21:46;1.73;;;1.63;;
3543;SDS011;1786;52.870;9.578;2023-11-21T04:24:13;1.70;;;1.60;;
3543;SDS011;1786;52.870;9.578;2023-11-21T04:26:40;4.93;;;2.07;;
3543;SDS011;1786;52.870;9.578;2023-11-21T04:29:07;1.90;;;1.73;;
3543;SDS011;1786;52.870;9.578;2023-11-21T04:31:33;1.70;;;1.60;;
3543;SDS011;1786;52.870;9.578;2023-11-21T04:34:00;1.60;;;1.60;;
3543;SDS011;1786;52.870;9.578;2023-11-21T04:36:27;2.17;;;2.00;;
3543;SDS011;1786;52.870;9.578;2023-11-21T04:38:54;2.93;;;1.63;;
3543;SDS011;1786;52.870;9.578;2023-11-21T04:41:21;1.80;;;1.77;;
3543;SDS011;1786;52.870;9.578;2023-11-21T04:43:47;3.23;;;2.40;;
3543;SDS011;1786;52.870;9.578;2023-11-21T04:46:15;2.03;;;1.93;;
3543;SDS011;1786;52.870;9.578;2023-11-21T04:48:42;2.07;;;2.03;;
3543;SDS011;1786;52.870;9.578;2023-11-21T04:51:09;2.40;;;1.70;;
3543;SDS011;1786;52.870;9.578;2023-11-21T04:53:39;1.90;;;1.80;;
3543;SDS011;1786;52.870;9.578;2023-11-21T04:56:06;1.90;;;1.80;;
3543;SDS011;1786;52.870;9.578;2023-11-21T04:58:32;1.37;;;1.37;;
3543;SDS011;1786;52.870;9.578;2023-11-21T05:00:59;1.33;;;1.33;;
3543;SDS011;1786;52.870;9.578;2023-11-21T05:03:26;6.40;;;1.57;;
3543;SDS011;1786;52.870;9.578;2023-11-21T05:05:53;1.57;;;1.47;;
3543;SDS011;1786;52.870;9.578;2023-11-21T05:08:22;1.40;;;1.40;;
3543;SDS011;1786;52.870;9.578;2023-11-21T05:10:48;1.80;;;1.40;;
3543;SDS011;1786;52.870;9.578;2023-11-21T05:13:16;1.57;;;1.50;;
3543;SDS011;1786;52.870;9.578;2023-11-21T05:15:44;1.00;;;1.00;;
3543;SDS011;1786;52.870;9.578;2023-11-21T05:18:11;1.07;;;1.07;;
3543;SDS011;1786;52.870;9.578;2023-11-21T05:20:40;2.17;;;1.63;;
3543;SDS011;1786;52.870;9.578;2023-11-21T05:23:07;1.70;;;1.70;;
3543;SDS011;1786;52.870;9.578;2023-11-21T05:25:34;1.47;;;1.37;;
3543;SDS011;1786;52.870;9.578;2023-11-21T05:28:06;1.60;;;1.60;;
3543;SDS011;1786;52.870;9.578;2023-11-21T05:30:33;2.60;;;1.70;;
3543;SDS011;1786;52.870;9.578;2023-11-21T05:33:00;2.60;;;2.50;;
3543;SDS011;1786;52.870;9.578;2023-11-21T05:35:27;3.53;;;2.20;;
3543;SDS011;1786;52.870;9.578;2023-11-21T05:37:53;2.73;;;2.53;;
3543;SDS011;1786;52.870;9.578;2023-11-21T05:40:20;3.90;;;3.30;;
3543;SDS011;1786;52.870;9.578;2023-11-21T05:42:49;3.10;;;2.90;;
3543;SDS011;1786;52.870;9.578;2023-11-21T05:45:17;5.20;;;4.70;;
3543;SDS011;1786;52.870;9.578;2023-11-21T05:47:45;3.87;;;3.17;;
3543;SDS011;1786;52.870;9.578;2023-11-21T05:50:14;4.97;;;3.77;;
3543;SDS011;1786;52.870;9.578;2023-11-21T05:52:45;5.87;;;4.07;;
3543;SDS011;1786;52.870;9.578;2023-11-21T05:55:14;9.63;;;6.13;;
3543;SDS011;1786;52.870;9.578;2023-11-21T05:57:41;4.67;;;4.27;;
3543;SDS011;1786;52.870;9.578;2023-11-21T06:00:11;4.57;;;4.17;;
3543;SDS011;1786;52.870;9.578;2023-11-21T06:02:49;4.90;;;4.50;;
3543;SDS011;1786;52.870;9.578;2023-11-21T06:05:17;17.80;;;8.67;;
3543;SDS011;1786;52.870;9.578;2023-11-21T06:07:45;5.50;;;4.57;;
3543;SDS011;1786;52.870;9.578;2023-11-21T06:10:14;5.93;;;5.00;;
3543;SDS011;1786;52.870;9.578;2023-11-21T06:12:41;6.57;;;5.03;;
3543;SDS011;1786;52.870;9.578;2023-11-21T06:15:10;6.07;;;5.20;;
3543;SDS011;1786;52.870;9.578;2023-11-21T06:17:41;6.00;;;5.23;;
3543;SDS011;1786;52.870;9.578;2023-11-21T06:20:09;7.17;;;5.57;;
3543;SDS011;1786;52.870;9.578;2023-11-21T06:22:41;5.40;;;4.90;;
3543;SDS011;1786;52.870;9.578;2023-11-21T06:25:10;5.93;;;5.33;;
3543;SDS011;1786;52.870;9.578;2023-11-21T06:27:40;7.70;;;5.07;;
3543;SDS011;1786;52.870;9.578;2023-11-21T06:30:09;5.10;;;4.70;;
3543;SDS011;1786;52.870;9.578;2023-11-21T06:32:38;10.90;;;5.00;;
3543;SDS011;1786;52.870;9.578;2023-11-21T06:35:07;6.23;;;5.10;;
3543;SDS011;1786;52.870;9.578;2023-11-21T06:37:38;6.17;;;5.57;;
3543;SDS011;1786;52.870;9.578;2023-11-21T06:40:06;7.57;;;5.20;;
3543;SDS011;1786;52.870;9.578;2023-11-21T06:42:34;7.30;;;5.50;;
3543;SDS011;1786;52.870;9.578;2023-11-21T06:45:01;5.67;;;5.07;;
3543;SDS011;1786;52.870;9.578;2023-11-21T06:47:33;10.60;;;5.30;;
3543;SDS011;1786;52.870;9.578;2023-11-21T06:50:00;6.10;;;5.50;;
3543;SDS011;1786;52.870;9.578;2023-11-21T06:52:27;7.83;;;5.57;;
3543;SDS011;1786;52.870;9.578;2023-11-21T06:54:53;6.23;;;5.60;;
3543;SDS011;1786;52.870;9.578;2023-11-21T06:57:22;8.90;;;5.07;;
3543;SDS011;1786;52.870;9.578;2023-11-21T06:59:49;8.87;;;6.83;;
3543;SDS011;1786;52.870;9.578;2023-11-21T07:02:17;7.93;;;5.43;;
3543;SDS011;1786;52.870;9.578;2023-11-21T07:04:47;5.73;;;5.23;;
3543;SDS011;1786;52.870;9.578;2023-11-21T07:07:14;6.63;;;6.03;;
3543;SDS011;1786;52.870;9.578;2023-11-21T07:09:42;6.60;;;5.23;;
3543;SDS011;1786;52.870;9.578;2023-11-21T07:12:09;8.63;;;6.33;;
3543;SDS011;1786;52.870;9.578;2023-11-21T07:14:37;9.90;;;6.87;;
3543;SDS011;1786;52.870;9.578;2023-11-21T07:17:06;10.33;;;7.30;;
3543;SDS011;1786;52.870;9.578;2023-11-21T07:19:33;8.60;;;7.67;;
3543;SDS011;1786;52.870;9.578;2023-11-21T07:22:02;9.27;;;7.60;;
3543;SDS011;1786;52.870;9.578;2023-11-21T07:24:29;11.53;;;6.90;;
3543;SDS011;1786;52.870;9.578;2023-11-21T07:26:58;9.17;;;7.03;;
3543;SDS011;1786;52.870;9.578;2023-11-21T07:29:25;9.60;;;6.07;;
3543;SDS011;1786;52.870;9.578;2023-11-21T07:31:53;8.87;;;7.33;;
3543;SDS011;1786;52.870;9.578;2023-11-21T07:34:22;6.67;;;5.93;;
3543;SDS011;1786;52.870;9.578;2023-11-21T07:36:48;9.67;;;7.70;;
3543;SDS011;1786;52.870;9.578;2023-11-21T07:39:15;8.60;;;6.90;;
3543;SDS011;1786;52.870;9.578;2023-11-21T07:41:45;7.00;;;6.30;;
3543;SDS011;1786;52.870;9.578;2023-11-21T07:44:16;9.10;;;6.87;;
3543;SDS011;1786;52.870;9.578;2023-11-21T07:46:46;8.67;;;6.73;;
3543;SDS011;1786;52.870;9.578;2023-11-21T07:49:13;7.70;;;6.43;;
3543;SDS011;1786;52.870;9.578;2023-11-21T07:51:46;8.87;;;6.17;;
3543;SDS011;1786;52.870;9.578;2023-11-21T07:54:14;7.50;;;6.33;;
3543;SDS011;1786;52.870;9.578;2023-11-21T07:56:42;8.07;;;6.93;;
3543;SDS011;1786;52.870;9.578;2023-11-21T07:59:10;8.00;;;6.83;;
3543;SDS011;1786;52.870;9.578;2023-11-21T08:01:37;10.00;;;7.27;;
3543;SDS011;1786;52.870;9.578;2023-11-21T08:04:07;9.87;;;6.23;;
3543;SDS011;1786;52.870;9.578;2023-11-21T08:06:35;7.60;;;6.50;;
3543;SDS011;1786;52.870;9.578;2023-11-21T08:09:01;8.57;;;7.17;;
3543;SDS011;1786;52.870;9.578;2023-11-21T08:11:28;8.10;;;7.00;;
3543;SDS011;1786;52.870;9.578;2023-11-21T08:13:58;6.90;;;6.20;;
3543;SDS011;1786;52.870;9.578;2023-11-21T08:16:25;7.97;;;6.40;;
3543;SDS011;1786;52.870;9.578;2023-11-21T08:18:52;6.30;;;5.80;;
3543;SDS011;1786;52.870;9.578;2023-11-21T08:21:19;6.67;;;5.90;;
3543;SDS011;1786;52.870;9.578;2023-11-21T08:23:46;6.67;;;5.73;;
3543;SDS011;1786;52.870;9.578;2023-11-21T08:26:18;7.23;;;5.63;;
3543;SDS011;1786;52.870;9.578;2023-11-21T08:28:45;7.80;;;6.40;;
3543;SDS011;1786;52.870;9.578;2023-11-21T08:31:13;6.83;;;5.93;;
3543;SDS011;1786;52.870;9.578;2023-11-21T08:33:41;6.60;;;5.80;;
3543;SDS011;1786;52.870;9.578;2023-11-21T08:36:09;9.07;;;6.37;;
3543;SDS011;1786;52.870;9.578;2023-11-21T08:38:37;6.90;;;5.70;;
3543;SDS011;1786;52.870;9.578;2023-11-21T08:41:05;6.77;;;5.83;;
3543;SDS011;1786;52.870;9.578;2023-11-21T08:43:36;12.23;;;6.13;;
3543;SDS011;1786;52.870;9.578;2023-11-21T08:46:06;9.03;;;6.33;;
3543;SDS011;1786;52.870;9.578;2023-11-21T08:48:36;9.27;;;5.63;;
3543;SDS011;1786;52.870;9.578;2023-11-21T08:51:03;7.10;;;4.83;;
3543;SDS011;1786;52.870;9.578;2023-11-21T08:53:31;13.20;;;5.90;;
3543;SDS011;1786;52.870;9.578;2023-11-21T08:55:57;6.23;;;4.93;;
3543;SDS011;1786;52.870;9.578;2023-11-21T08:58:25;5.73;;;5.10;;
3543;SDS011;1786;52.870;9.578;2023-11-21T09:00:52;5.37;;;5.00;;
3543;SDS011;1786;52.870;9.578;2023-11-21T09:03:19;6.77;;;5.00;;
3543;SDS011;1786;52.870;9.578;2023-11-21T09:05:45;6.23;;;4.87;;
3543;SDS011;1786;52.870;9.578;2023-11-21T09:08:12;5.90;;;4.60;;
3543;SDS011;1786;52.870;9.578;2023-11-21T09:10:39;5.80;;;4.60;;
3543;SDS011;1786;52.870;9.578;2023-11-21T09:13:06;5.10;;;4.60;;
3543;SDS011;1786;52.870;9.578;2023-11-21T09:15:35;8.73;;;7.00;;
3543;SDS011;1786;52.870;9.578;2023-11-21T09:18:02;6.20;;;4.63;;
3543;SDS011;1786;52.870;9.578;2023-11-21T09:20:29;4.90;;;4.50;;
3543;SDS011;1786;52.870;9.578;2023-11-21T09:22:56;4.40;;;4.10;;
3543;SDS011;1786;52.870;9.578;2023-11-21T09:25:23;5.80;;;5.30;;
3543;SDS011;1786;52.870;9.578;2023-11-21T09:27:50;5.17;;;4.50;;
3543;SDS011;1786;52.870;9.578;2023-11-21T09:30:17;5.13;;;4.63;;
3543;SDS011;1786;52.870;9.578;2023-11-21T09:32:44;5.00;;;4.60;;
3543;SDS011;1786;52.870;9.578;2023-11-21T09:35:12;5.70;;;5.20;;
3543;SDS011;1786;52.870;9.578;2023-11-21T09:37:41;5.30;;;4.87;;
3543;SDS011;1786;52.870;9.578;2023-11-21T09:40:09;5.13;;;4.70;;
3543;SDS011;1786;52.870;9.578;2023-11-21T09:42:40;4.53;;;4.13;;
3543;SDS011;1786;52.870;9.578;2023-11-21T09:48:01;4.60;;;4.30;;
3543;SDS011;1786;52.870;9.578;2023-11-21T09:50:28;10.20;;;6.60;;
3543;SDS011;1786;52.870;9.578;2023-11-21T09:52:57;6.23;;;5.27;;
3543;SDS011;1786;52.870;9.578;2023-11-21T09:55:32;6.63;;;5.37;;
3543;SDS011;1786;52.870;9.578;2023-11-21T09:58:03;6.37;;;5.77;;
3543;SDS011;1786;52.870;9.578;2023-11-21T10:00:34;9.10;;;7.07;;
3543;SDS011;1786;52.870;9.578;2023-11-21T10:03:01;7.40;;;6.70;;
3543;SDS011;1786;52.870;9.578;2023-11-21T10:05:29;15.53;;;13.87;;
3543;SDS011;1786;52.870;9.578;2023-11-21T10:07:56;10.10;;;9.10;;
3543;SDS011;1786;52.870;9.578;2023-11-21T10:10:24;8.83;;;6.00;;
3543;SDS011;1786;52.870;9.578;2023-11-21T10:12:53;7.43;;;6.73;;
3543;SDS011;1786;52.870;9.578;2023-11-21T10:15:23;7.97;;;6.33;;
3543;SDS011;1786;52.870;9.578;2023-11-21T10:17:53;8.00;;;6.73;;
3543;SDS011;1786;52.870;9.578;2023-11-21T10:20:22;11.93;;;5.80;;
3543;SDS011;1786;52.870;9.578;2023-11-21T10:22:51;7.47;;;6.73;;
3543;SDS011;1786;52.870;9.578;2023-11-21T10:25:18;7.20;;;6.03;;
3543;SDS011;1786;52.870;9.578;2023-11-21T10:27:47;6.00;;;5.50;;
3543;SDS011;1786;52.870;9.578;2023-11-21T10:30:16;7.13;;;6.17;;
3543;SDS011;1786;52.870;9.578;2023-11-21T10:32:44;6.47;;;5.80;;
3543;SDS011;1786;52.870;9.578;2023-11-21T10:35:11;7.63;;;5.90;;
3543;SDS011;1786;52.870;9.578;2023-11-21T10:37:41;7.30;;;5.20;;
3543;SDS011;1786;52.870;9.578;2023-11-21T10:40:10;8.73;;;5.50;;
3543;SDS011;1786;52.870;9.578;2023-11-21T10:42:39;7.70;;;5.50;;
3543;SDS011;1786;52.870;9.578;2023-11-21T10:45:09;6.33;;;5.73;;
3543;SDS011;1786;52.870;9.578;2023-11-21T10:47:41;7.13;;;5.80;;
3543;SDS011;1786;52.870;9.578;2023-11-21T10:50:10;6.20;;;5.60;;
3543;SDS011;1786;52.870;9.578;2023-11-21T10:52:41;6.00;;;5.40;;
3543;SDS011;1786;52.870;9.578;2023-11-21T10:55:16;5.50;;;5.00;;
3543;SDS011;1786;52.870;9.578;2023-11-21T10:57:46;6.57;;;5.97;;
3543;SDS011;1786;52.870;9.578;2023-11-21T11:00:16;6.30;;;5.20;;
3543;SDS011;1786;52.870;9.578;2023-11-21T11:02:45;6.47;;;5.67;;
3543;SDS011;1786;52.870;9.578;2023-11-21T11:05:16;6.80;;;5.90;;
3543;SDS011;1786;52.870;9.578;2023-11-21T11:07:48;17.03;;;6.10;;
3543;SDS011;1786;52.870;9.578;2023-11-21T11:10:20;6.47;;;5.87;;
3543;SDS011;1786;52.870;9.578;2023-11-21T11:12:49;9.57;;;5.23;;
3543;SDS011;1786;52.870;9.578;2023-11-21T11:15:16;6.60;;;4.77;;
3543;SDS011;1786;52.870;9.578;2023-11-21T11:17:44;6.33;;;5.70;;
3543;SDS011;1786;52.870;9.578;2023-11-21T11:20:12;5.23;;;4.77;;
3543;SDS011;1786;52.870;9.578;2023-11-21T11:22:48;4.60;;;4.20;;
3543;SDS011;1786;52.870;9.578;2023-11-21T11:28:18;7.10;;;5.30;;
3543;SDS011;1786;52.870;9.578;2023-11-21T11:30:52;5.00;;;4.50;;
3543;SDS011;1786;52.870;9.578;2023-11-21T11:33:35;4.60;;;4.23;;
3543;SDS011;1786;52.870;9.578;2023-11-21T11:39:00;6.50;;;4.50;;
3543;SDS011;1786;52.870;9.578;2023-11-21T11:41:30;4.00;;;3.77;;
3543;SDS011;1786;52.870;9.578;2023-11-21T11:44:00;5.50;;;5.00;;
3543;SDS011;1786;52.870;9.578;2023-11-21T11:46:43;5.80;;;4.30;;
3543;SDS011;1786;52.870;9.578;2023-11-21T11:50:17;5.40;;;4.13;;
3543;SDS011;1786;52.870;9.578;2023-11-21T11:55:13;4.03;;;3.70;;
3543;SDS011;1786;52.870;9.578;2023-11-21T11:57:42;4.10;;;3.40;;
3543;SDS011;1786;52.870;9.578;2023-11-21T12:03:02;5.10;;;3.83;;
3543;SDS011;1786;52.870;9.578;2023-11-21T12:05:32;4.03;;;3.73;;
3543;SDS011;1786;52.870;9.578;2023-11-21T12:08:07;3.90;;;3.60;;
3543;SDS011;1786;52.870;9.578;2023-11-21T12:10:36;6.03;;;4.07;;
3543;SDS011;1786;52.870;9.578;2023-11-21T12:13:06;3.60;;;3.40;;
3543;SDS011;1786;52.870;9.578;2023-11-21T12:15:34;4.23;;;3.93;;
3543;SDS011;1786;52.870;9.578;2023-11-21T12:18:01;4.20;;;3.70;;
3543;SDS011;1786;52.870;9.578;2023-11-21T12:20:30;5.90;;;3.83;;
3543;SDS011;1786;52.870;9.578;2023-11-21T12:22:58;4.93;;;4.03;;
3543;SDS011;1786;52.870;9.578;2023-11-21T12:25:28;5.40;;;3.60;;
3543;SDS011;1786;52.870;9.578;2023-11-21T12:27:56;3.70;;;3.40;;
3543;SDS011;1786;52.870;9.578;2023-11-21T12:30:24;4.10;;;3.80;;
3543;SDS011;1786;52.870;9.578;2023-11-21T12:32:55;3.50;;;3.30;;
3543;SDS011;1786;52.870;9.578;2023-11-21T12:35:25;4.43;;;3.80;;
3543;SDS011;1786;52.870;9.578;2023-11-21T12:37:54;4.53;;;3.77;;
3543;SDS011;1786;52.870;9.578;2023-11-21T12:40:23;4.30;;;3.90;;
3543;SDS011;1786;52.870;9.578;2023-11-21T12:42:56;4.60;;;3.87;;
3543;SDS011;1786;52.870;9.578;2023-11-21T12:45:26;3.43;;;3.20;;
3543;SDS011;1786;52.870;9.578;2023-11-21T12:47:55;3.50;;;3.30;;
3543;SDS011;1786;52.870;9.578;2023-11-21T12:50:27;3.67;;;3.47;;
3543;SDS011;1786;52.870;9.578;2023-11-21T12:52:59;4.40;;;3.23;;
3543;SDS011;1786;52.870;9.578;2023-11-21T12:55:30;3.30;;;3.20;;
3543;SDS011;1786;52.870;9.578;2023-11-21T12:57:59;3.60;;;3.30;;
3543;SDS011;1786;52.870;9.578;2023-11-21T13:00:38;3.10;;;2.90;;
3543;SDS011;1786;52.870;9.578;2023-11-21T13:03:10;4.97;;;3.40;;
3543;SDS011;1786;52.870;9.578;2023-11-21T13:05:40;3.27;;;3.00;;
3543;SDS011;1786;52.870;9.578;2023-11-21T13:08:14;2.90;;;2.80;;
3543;SDS011;1786;52.870;9.578;2023-11-21T13:10:43;3.70;;;3.50;;
3543;SDS011;1786;52.870;9.578;2023-11-21T13:13:13;3.13;;;2.90;;
3543;SDS011;1786;52.870;9.578;2023-11-21T13:15:54;2.90;;;2.70;;
3543;SDS011;1786;52.870;9.578;2023-11-21T13:18:23;2.83;;;2.73;;
3543;SDS011;1786;52.870;9.578;2023-11-21T13:20:56;4.07;;;3.10;;
3543;SDS011;1786;52.870;9.578;2023-11-21T13:23:34;3.57;;;3.33;;
3543;SDS011;1786;52.870;9.578;2023-11-21T13:26:02;3.60;;;3.40;;
3543;SDS011;1786;52.870;9.578;2023-11-21T13:28:33;3.20;;;2.93;;
3543;SDS011;1786;52.870;9.578;2023-11-21T13:31:00;3.50;;;3.20;;
3543;SDS011;1786;52.870;9.578;2023-11-21T13:33:38;4.20;;;3.77;;
3543;SDS011;1786;52.870;9.578;2023-11-21T13:36:08;3.90;;;3.60;;
3543;SDS011;1786;52.870;9.578;2023-11-21T13:38:37;3.23;;;3.03;;
3543;SDS011;1786;52.870;9.578;2023-11-21T13:41:08;7.23;;;2.90;;
3543;SDS011;1786;52.870;9.578;2023-11-21T13:43:36;3.30;;;3.00;;
3543;SDS011;1786;52.870;9.578;2023-11-21T13:46:05;6.33;;;4.23;;
3543;SDS011;1786;52.870;9.578;2023-11-21T13:48:42;3.10;;;2.80;;
3543;SDS011;1786;52.870;9.578;2023-11-21T13:51:09;2.80;;;2.70;;
3543;SDS011;1786;52.870;9.578;2023-11-21T13:53:47;6.93;;;2.87;;
3543;SDS011;1786;52.870;9.578;2023-11-21T13:56:17;3.00;;;2.90;;
3543;SDS011;1786;52.870;9.578;2023-11-21T13:58:50;3.80;;;3.50;;
3543;SDS011;1786;52.870;9.578;2023-11-21T14:01:23;3.27;;;2.97;;
3543;SDS011;1786;52.870;9.578;2023-11-21T14:04:11;6.10;;;2.87;;
3543;SDS011;1786;52.870;9.578;2023-11-21T14:06:45;3.60;;;3.40;;
3543;SDS011;1786;52.870;9.578;2023-11-21T14:09:16;2.90;;;2.60;;
3543;SDS011;1786;52.870;9.578;2023-11-21T14:12:02;4.83;;;3.00;;
3543;SDS011;1786;52.870;9.578;2023-11-21T14:14:33;2.20;;;2.10;;
3543;SDS011;1786;52.870;9.578;2023-11-21T14:17:00;3.17;;;2.97;;
3543;SDS011;1786;52.870;9.578;2023-11-21T14:19:33;3.23;;;2.70;;
3543;SDS011;1786;52.870;9.578;2023-11-21T14:22:00;3.00;;;2.80;;
3543;SDS011;1786;52.870;9.578;2023-11-21T14:24:27;2.60;;;2.43;;
3543;SDS011;1786;52.870;9.578;2023-11-21T14:26:56;5.80;;;3.00;;
3543;SDS011;1786;52.870;9.578;2023-11-21T14:29:23;2.83;;;2.60;;
3543;SDS011;1786;52.870;9.578;2023-11-21T14:31:50;3.47;;;3.27;;
3543;SDS011;1786;52.870;9.578;2023-11-21T14:34:20;2.90;;;2.70;;
3543;SDS011;1786;52.870;9.578;2023-11-21T14:36:49;2.80;;;2.70;;
3543;SDS011;1786;52.870;9.578;2023-11-21T14:39:16;3.70;;;2.53;;
3543;SDS011;1786;52.870;9.578;2023-11-21T14:41:51;3.17;;;2.97;;
3543;SDS011;1786;52.870;9.578;2023-11-21T14:44:29;5.63;;;3.90;;
3543;SDS011;1786;52.870;9.578;2023-11-21T14:46:59;4.23;;;3.83;;
3543;SDS011;1786;52.870;9.578;2023-11-21T14:49:29;3.90;;;3.37;;
3543;SDS011;1786;52.870;9.578;2023-11-21T14:52:07;7.60;;;5.10;;
3543;SDS011;1786;52.870;9.578;2023-11-21T14:54:50;4.90;;;3.97;;
3543;SDS011;1786;52.870;9.578;2023-11-21T14:57:26;4.53;;;2.40;;
3543;SDS011;1786;52.870;9.578;2023-11-21T14:59:53;3.23;;;3.13;;
3543;SDS011;1786;52.870;9.578;2023-11-21T15:02:24;2.90;;;2.70;;
3543;SDS011;1786;52.870;9.578;2023-11-21T15:05:10;2.43;;;2.33;;
3543;SDS011;1786;52.870;9.578;2023-11-21T15:07:43;2.90;;;2.13;;
3543;SDS011;1786;52.870;9.578;2023-11-21T15:10:11;2.43;;;2.33;;
3543;SDS011;1786;52.870;9.578;2023-11-21T15:12:42;4.40;;;2.50;;
3543;SDS011;1786;52.870;9.578;2023-11-21T15:15:11;3.13;;;2.93;;
3543;SDS011;1786;52.870;9.578;2023-11-21T15:17:41;2.60;;;2.50;;
3543;SDS011;1786;52.870;9.578;2023-11-21T15:20:10;3.47;;;3.27;;
3543;SDS011;1786;52.870;9.578;2023-11-21T15:22:42;3.10;;;2.90;;
3543;SDS011;1786;52.870;9.578;2023-11-21T15:25:09;7.23;;;2.83;;
3543;SDS011;1786;52.870;9.578;2023-11-21T15:27:37;3.23;;;2.27;;
3543;SDS011;1786;52.870;9.578;2023-11-21T15:30:04;3.20;;;2.40;;
3543;SDS011;1786;52.870;9.578;2023-11-21T15:32:32;4.53;;;2.67;;
3543;SDS011;1786;52.870;9.578;2023-11-21T15:34:59;2.77;;;2.60;;
3543;SDS011;1786;52.870;9.578;2023-11-21T15:37:25;2.43;;;2.33;;
3543;SDS011;1786;52.870;9.578;2023-11-21T15:39:56;2.80;;;2.60;;